createdAt,value
2023-08-12T00:00:12.523Z,25.08
2023-08-12T00:02:44.526Z,25.06
2023-08-12T00:05:12.282Z,25.01
2023-08-12T00:07:43.069Z,25.00
2023-08-12T00:10:12.148Z,25.01
2023-08-12T00:12:39.873Z,24.98
2023-08-12T00:15:09.465Z,24.99
2023-08-12T00:17:38.554Z,24.98
2023-08-12T00:20:12.476Z,24.95
2023-08-12T00:22:40.553Z,24.97
2023-08-12T00:25:08.371Z,24.96
2023-08-12T00:27:35.976Z,24.94
2023-08-12T00:30:03.735Z,24.94
2023-08-12T00:32:31.579Z,24.93
2023-08-12T00:34:59.165Z,24.92
2023-08-12T00:37:26.710Z,24.90
2023-08-12T00:39:54.309Z,24.88
2023-08-12T00:42:21.884Z,24.86
2023-08-12T00:44:49.426Z,24.85
2023-08-12T00:47:17.645Z,24.84
2023-08-12T00:49:46.835Z,24.84
2023-08-12T00:52:14.870Z,24.82
2023-08-12T00:54:42.440Z,24.79
2023-08-12T00:57:10.015Z,24.75
2023-08-12T00:59:38.424Z,24.73
2023-08-12T01:02:05.984Z,24.71
2023-08-12T01:04:33.567Z,24.68
2023-08-12T01:07:01.332Z,24.66
2023-08-12T01:09:29.302Z,24.67
2023-08-12T01:12:00.094Z,24.65
2023-08-12T01:14:36.866Z,24.65
2023-08-12T01:17:06.099Z,24.63
2023-08-12T01:19:39.624Z,24.61
2023-08-12T01:22:11.584Z,24.57
2023-08-12T01:24:43.282Z,24.57
2023-08-12T01:27:12.282Z,24.53
2023-08-12T01:29:45.544Z,24.53
2023-08-12T01:32:14.641Z,24.51
2023-08-12T01:34:55.668Z,24.46
2023-08-12T01:37:25.954Z,24.45
2023-08-12T01:39:53.907Z,24.44
2023-08-12T01:42:21.433Z,24.44
2023-08-12T01:44:48.994Z,24.42
2023-08-12T01:47:16.547Z,24.41
2023-08-12T01:49:44.081Z,24.39
2023-08-12T01:52:11.625Z,24.34
2023-08-12T01:54:39.582Z,24.33
2023-08-12T01:57:09.890Z,24.35
2023-08-12T01:59:39.517Z,24.33
2023-08-12T02:02:07.058Z,24.30
2023-08-12T02:04:35.209Z,24.14
2023-08-12T02:07:02.796Z,24.12
2023-08-12T02:09:30.377Z,24.03
2023-08-12T02:11:58.292Z,23.99
2023-08-12T02:14:25.845Z,23.98
2023-08-12T02:16:53.533Z,23.97
2023-08-12T02:19:22.793Z,23.96
2023-08-12T02:21:50.397Z,23.94
2023-08-12T02:24:17.940Z,23.91
2023-08-12T02:26:45.513Z,23.88
2023-08-12T02:29:13.031Z,23.85
2023-08-12T02:31:40.688Z,23.83
2023-08-12T02:34:08.585Z,23.80
2023-08-12T02:36:36.267Z,23.80
2023-08-12T02:39:04.010Z,23.79
2023-08-12T02:41:32.421Z,23.88
2023-08-12T02:43:59.970Z,23.86
2023-08-12T02:46:27.533Z,23.77
2023-08-12T02:48:55.132Z,23.73
2023-08-12T02:51:22.673Z,23.72
2023-08-12T02:53:50.269Z,23.70
2023-08-12T02:56:17.862Z,23.68
2023-08-12T02:58:45.446Z,23.66
2023-08-12T03:01:13.052Z,23.65
2023-08-12T03:03:40.692Z,23.64
2023-08-12T03:06:08.206Z,23.65
2023-08-12T03:08:35.754Z,23.66
2023-08-12T03:11:04.076Z,23.63
2023-08-12T03:13:31.979Z,23.60
2023-08-12T03:15:59.758Z,23.60
2023-08-12T03:18:27.407Z,23.61
2023-08-12T03:20:55.012Z,23.61
2023-08-12T03:23:23.769Z,23.62
2023-08-12T03:25:51.633Z,23.61
2023-08-12T03:28:19.160Z,23.57
2023-08-12T03:30:53.599Z,23.57
2023-08-12T03:33:22.781Z,23.58
2023-08-12T03:35:50.472Z,23.58
2023-08-12T03:38:18.119Z,23.58
2023-08-12T03:40:46.597Z,23.53
2023-08-12T03:43:15.450Z,23.50
2023-08-12T03:45:44.239Z,23.50
2023-08-12T03:48:12.553Z,23.50
2023-08-12T03:50:40.423Z,23.49
2023-08-12T03:53:10.177Z,23.49
2023-08-12T03:55:37.989Z,23.45
2023-08-12T03:58:06.321Z,23.52
2023-08-12T04:00:34.120Z,23.47
2023-08-12T04:03:02.441Z,23.47
2023-08-12T04:05:30.098Z,23.48
2023-08-12T04:07:57.702Z,23.45
2023-08-12T04:10:25.898Z,23.47
2023-08-12T04:12:54.517Z,23.47
2023-08-12T04:15:22.139Z,23.48
2023-08-12T04:17:49.995Z,23.48
2023-08-12T04:20:17.707Z,23.46
2023-08-12T04:22:47.009Z,23.46
2023-08-12T04:25:16.031Z,23.49
2023-08-12T04:27:43.736Z,23.52
2023-08-12T04:30:11.844Z,23.53
2023-08-12T04:32:39.541Z,23.53
2023-08-12T04:35:09.650Z,23.53
2023-08-12T04:37:37.983Z,23.54
2023-08-12T04:40:08.424Z,23.55
2023-08-12T04:42:36.125Z,23.55
2023-08-12T04:45:05.216Z,23.55
2023-08-12T04:47:33.119Z,23.55
2023-08-12T04:50:01.296Z,23.55
2023-08-12T04:52:29.885Z,23.56
2023-08-12T04:54:57.666Z,23.57
2023-08-12T04:57:25.410Z,23.59
2023-08-12T04:59:53.007Z,23.60
2023-08-12T05:02:22.490Z,23.62
2023-08-12T05:04:51.260Z,23.62
2023-08-12T05:07:18.907Z,23.63
2023-08-12T05:09:46.491Z,23.63
2023-08-12T05:12:15.376Z,23.64
2023-08-12T05:14:43.098Z,23.65
2023-08-12T05:17:10.924Z,23.66
2023-08-12T05:19:38.844Z,23.67
2023-08-12T05:22:06.488Z,23.68
2023-08-12T05:24:34.098Z,23.69
2023-08-12T05:27:01.812Z,23.72
2023-08-12T05:29:29.355Z,23.74
2023-08-12T05:31:56.948Z,23.74
2023-08-12T05:34:24.580Z,23.76
2023-08-12T05:36:52.098Z,23.80
2023-08-12T05:39:19.729Z,23.85
2023-08-12T05:41:47.677Z,23.99
2023-08-12T05:44:15.469Z,24.18
2023-08-12T05:46:43.079Z,24.38
2023-08-12T05:49:10.960Z,24.53
2023-08-12T05:51:39.633Z,24.65
2023-08-12T05:54:07.220Z,24.77
2023-08-12T05:56:34.797Z,24.88
2023-08-12T05:59:02.328Z,24.97
2023-08-12T06:01:29.972Z,25.05
2023-08-12T06:03:57.653Z,25.13
2023-08-12T06:06:25.258Z,25.19
2023-08-12T06:08:52.821Z,25.26
2023-08-12T06:11:20.341Z,25.35
2023-08-12T06:13:47.944Z,25.39
2023-08-12T06:16:15.484Z,25.39
2023-08-12T06:18:43.489Z,25.38
2023-08-12T06:21:11.026Z,25.35
2023-08-12T06:23:38.561Z,25.33
2023-08-12T06:26:06.088Z,25.31
2023-08-12T06:28:33.658Z,25.31
2023-08-12T06:31:01.295Z,25.32
2023-08-12T06:33:28.871Z,25.31
2023-08-12T06:35:56.430Z,25.32
2023-08-12T06:38:24.021Z,25.32
2023-08-12T06:40:51.543Z,25.35
2023-08-12T06:43:19.072Z,25.38
2023-08-12T06:45:46.620Z,25.38
2023-08-12T06:48:14.265Z,25.43
2023-08-12T06:50:41.841Z,25.48
2023-08-12T06:53:09.398Z,25.54
2023-08-12T06:55:37.252Z,25.61
2023-08-12T06:58:04.914Z,25.66
2023-08-12T07:00:32.438Z,25.70
2023-08-12T07:03:00.006Z,25.72
2023-08-12T07:05:27.564Z,25.74
2023-08-12T07:07:55.098Z,25.78
2023-08-12T07:10:24.148Z,25.81
2023-08-12T07:12:51.840Z,25.86
2023-08-12T07:15:19.479Z,25.95
2023-08-12T07:17:47.056Z,26.09
2023-08-12T07:20:14.689Z,26.28
2023-08-12T07:22:42.243Z,26.49
2023-08-12T07:25:10.297Z,26.73
2023-08-12T07:27:37.858Z,26.97
2023-08-12T07:30:05.941Z,27.18
2023-08-12T07:32:33.582Z,27.35
2023-08-12T07:35:01.336Z,27.46
2023-08-12T07:37:29.882Z,27.51
2023-08-12T07:39:57.417Z,27.52
2023-08-12T07:42:25.037Z,27.52
2023-08-12T07:44:52.577Z,27.49
2023-08-12T07:47:20.357Z,27.47
2023-08-12T07:49:47.910Z,27.41
2023-08-12T07:52:15.456Z,27.35
2023-08-12T07:54:43.038Z,27.25
2023-08-12T07:57:10.610Z,27.18
2023-08-12T07:59:38.213Z,27.13
2023-08-12T08:02:06.170Z,27.09
2023-08-12T08:04:34.601Z,27.07
2023-08-12T08:07:02.148Z,27.07
2023-08-12T08:09:29.757Z,27.07
2023-08-12T08:11:57.527Z,27.07
2023-08-12T08:14:25.149Z,27.08
2023-08-12T08:16:52.787Z,27.12
2023-08-12T08:19:20.579Z,27.20
2023-08-12T08:21:48.122Z,27.27
2023-08-12T08:24:15.703Z,27.33
2023-08-12T08:26:43.261Z,27.38
2023-08-12T08:29:10.783Z,27.44
2023-08-12T08:31:38.383Z,27.52
2023-08-12T08:34:06.059Z,27.58
2023-08-12T08:36:33.854Z,27.62
2023-08-12T08:39:01.396Z,27.65
2023-08-12T08:41:29.140Z,27.70
2023-08-12T08:43:56.713Z,27.73
2023-08-12T08:46:24.288Z,27.75
2023-08-12T08:48:51.817Z,27.79
2023-08-12T08:51:20.451Z,27.84
2023-08-12T08:53:48.460Z,27.89
2023-08-12T08:56:16.306Z,27.93
2023-08-12T08:58:43.878Z,27.95
2023-08-12T09:01:12.290Z,28.01
2023-08-12T09:03:40.029Z,28.04
2023-08-12T09:06:07.779Z,28.07
2023-08-12T09:08:35.819Z,28.12
2023-08-12T09:11:03.602Z,28.15
2023-08-12T09:13:31.287Z,28.19
2023-08-12T09:15:58.863Z,28.24
2023-08-12T09:18:27.362Z,28.30
2023-08-12T09:20:55.056Z,28.34
2023-08-12T09:23:22.584Z,28.39
2023-08-12T09:25:50.159Z,28.45
2023-08-12T09:28:17.795Z,28.51
2023-08-12T09:30:51.264Z,28.56
2023-08-12T09:33:20.096Z,28.59
2023-08-12T09:35:48.202Z,28.61
2023-08-12T09:38:15.750Z,28.65
2023-08-12T09:40:43.372Z,28.68
2023-08-12T09:43:12.822Z,28.74
2023-08-12T09:45:41.011Z,28.81
2023-08-12T09:48:10.141Z,28.88
2023-08-12T09:50:38.497Z,28.93
2023-08-12T09:53:06.036Z,28.99
2023-08-12T09:55:33.817Z,29.05
2023-08-12T09:58:01.360Z,29.10
2023-08-12T10:00:29.011Z,29.15
2023-08-12T10:02:56.597Z,29.20
2023-08-12T10:05:27.471Z,29.24
2023-08-12T10:07:55.522Z,29.28
2023-08-12T10:10:25.852Z,29.31
2023-08-12T10:12:53.392Z,29.34
2023-08-12T10:15:21.299Z,29.42
2023-08-12T10:17:48.939Z,29.50
2023-08-12T10:20:22.711Z,29.56
2023-08-12T10:22:50.330Z,29.62
2023-08-12T10:25:19.640Z,29.67
2023-08-12T10:27:47.174Z,29.74
2023-08-12T10:30:14.918Z,29.80
2023-08-12T10:32:42.608Z,29.89
2023-08-12T10:35:10.285Z,29.96
2023-08-12T10:37:37.823Z,30.02
2023-08-12T10:40:09.584Z,30.07
2023-08-12T10:42:44.609Z,30.10
2023-08-12T10:45:13.135Z,30.14
2023-08-12T10:47:47.589Z,30.18
2023-08-12T10:50:22.752Z,30.22
2023-08-12T10:52:54.147Z,30.24
2023-08-12T10:55:25.917Z,30.29
2023-08-12T10:57:56.588Z,30.33
2023-08-12T11:00:26.301Z,30.38
2023-08-12T11:02:57.930Z,30.41
2023-08-12T11:05:26.079Z,30.40
2023-08-12T11:07:57.919Z,30.39
2023-08-12T11:10:26.910Z,30.41
2023-08-12T11:12:57.303Z,30.43
2023-08-12T11:15:39.152Z,30.44
2023-08-12T11:18:11.123Z,30.45
2023-08-12T11:20:38.786Z,30.47
2023-08-12T11:23:07.219Z,30.50
2023-08-12T11:25:36.298Z,30.52
2023-08-12T11:28:04.836Z,30.53
2023-08-12T11:30:33.133Z,30.54
2023-08-12T11:33:01.708Z,30.52
2023-08-12T11:35:29.682Z,30.49
2023-08-12T11:37:58.840Z,30.43
2023-08-12T11:40:28.064Z,30.38
2023-08-12T11:42:56.045Z,30.35
2023-08-12T11:45:25.481Z,30.33
2023-08-12T11:47:56.865Z,30.30
2023-08-12T11:50:25.880Z,30.28
2023-08-12T11:52:54.251Z,30.27
2023-08-12T11:55:21.897Z,30.27
2023-08-12T11:57:49.485Z,30.27
2023-08-12T12:00:20.039Z,30.27
2023-08-12T12:02:55.884Z,30.26
2023-08-12T12:05:25.078Z,30.27
2023-08-12T12:07:54.096Z,30.27
2023-08-12T12:10:23.306Z,30.31
2023-08-12T12:12:50.949Z,30.36
2023-08-12T12:15:18.493Z,30.41
2023-08-12T12:17:50.170Z,30.46
2023-08-12T12:20:17.841Z,30.51
2023-08-12T12:22:46.443Z,30.56
2023-08-12T12:25:15.162Z,30.61
2023-08-12T12:27:43.865Z,30.66
2023-08-12T12:30:12.776Z,30.68
2023-08-12T12:32:40.927Z,30.70
2023-08-12T12:35:08.789Z,30.71
2023-08-12T12:37:37.449Z,30.72
2023-08-12T12:40:08.864Z,30.71
2023-08-12T12:42:36.402Z,30.71
2023-08-12T12:45:04.225Z,30.71
2023-08-12T12:47:31.752Z,30.70
2023-08-12T12:49:59.396Z,30.69
2023-08-12T12:52:26.925Z,30.69
2023-08-12T12:54:54.472Z,30.68
2023-08-12T12:57:22.027Z,30.69
2023-08-12T12:59:49.810Z,30.69
2023-08-12T13:02:17.556Z,30.68
2023-08-12T13:04:46.070Z,30.68
2023-08-12T13:07:13.624Z,30.67
2023-08-12T13:09:42.153Z,30.66
2023-08-12T13:12:10.052Z,30.66
2023-08-12T13:14:37.794Z,30.66
2023-08-12T13:17:05.307Z,30.66
2023-08-12T13:19:32.873Z,30.66
2023-08-12T13:22:01.077Z,30.67
2023-08-12T13:24:28.645Z,30.67
2023-08-12T13:26:57.425Z,30.68
2023-08-12T13:29:27.628Z,30.68
2023-08-12T13:31:55.213Z,30.67
2023-08-12T13:34:22.786Z,30.67
2023-08-12T13:36:50.436Z,30.66
2023-08-12T13:39:18.983Z,30.64
2023-08-12T13:41:46.558Z,30.63
2023-08-12T13:44:14.240Z,30.61
2023-08-12T13:46:41.769Z,30.60
2023-08-12T13:49:09.297Z,30.58
2023-08-12T13:51:36.833Z,30.57
2023-08-12T13:54:04.707Z,30.55
2023-08-12T13:56:32.648Z,30.52
2023-08-12T13:59:00.208Z,30.48
2023-08-12T14:01:27.816Z,30.45
2023-08-12T14:03:55.509Z,30.41
2023-08-12T14:06:23.161Z,30.38
2023-08-12T14:08:50.704Z,30.35
2023-08-12T14:11:18.765Z,30.32
2023-08-12T14:13:46.288Z,30.29
2023-08-12T14:16:14.001Z,30.26
2023-08-12T14:18:41.572Z,30.24
2023-08-12T14:21:09.239Z,30.21
2023-08-12T14:23:36.888Z,30.19
2023-08-12T14:26:04.416Z,30.16
2023-08-12T14:28:31.965Z,30.15
2023-08-12T14:30:59.629Z,30.13
2023-08-12T14:33:27.325Z,30.11
2023-08-12T14:35:55.618Z,30.08
2023-08-12T14:38:23.207Z,30.06
2023-08-12T14:40:50.761Z,30.04
2023-08-12T14:43:18.277Z,30.03
2023-08-12T14:45:46.499Z,30.02
2023-08-12T14:48:16.276Z,30.02
2023-08-12T14:50:43.872Z,30.01
2023-08-12T14:53:11.451Z,30.02
2023-08-12T14:55:39.018Z,30.01
2023-08-12T14:58:06.551Z,30.00
2023-08-12T15:00:35.094Z,29.99
2023-08-12T15:03:02.983Z,29.96
2023-08-12T15:05:30.592Z,29.94
2023-08-12T15:07:58.581Z,29.91
2023-08-12T15:10:26.170Z,29.86
2023-08-12T15:12:53.787Z,29.82
2023-08-12T15:15:21.333Z,29.77
2023-08-12T15:17:48.920Z,29.73
2023-08-12T15:20:16.621Z,29.71
2023-08-12T15:22:44.168Z,29.70
2023-08-12T15:25:11.698Z,29.69
2023-08-12T15:27:39.725Z,29.69
2023-08-12T15:30:07.807Z,29.68
2023-08-12T15:32:36.363Z,29.67
2023-08-12T15:35:04.083Z,29.64
2023-08-12T15:37:31.619Z,29.61
2023-08-12T15:39:59.147Z,29.56
2023-08-12T15:42:26.882Z,29.53
2023-08-12T15:44:54.423Z,29.47
2023-08-12T15:47:21.962Z,29.40
2023-08-12T15:49:49.485Z,29.34
2023-08-12T15:52:17.064Z,29.31
2023-08-12T15:54:44.588Z,29.28
2023-08-12T15:57:12.354Z,29.26
2023-08-12T15:59:40.094Z,29.25
2023-08-12T16:02:10.248Z,29.26
2023-08-12T16:04:38.185Z,29.24
2023-08-12T16:07:05.716Z,29.23
2023-08-12T16:09:33.303Z,29.22
2023-08-12T16:12:00.851Z,29.23
2023-08-12T16:14:28.477Z,29.23
2023-08-12T16:16:55.978Z,29.22
2023-08-12T16:19:23.537Z,29.21
2023-08-12T16:21:51.057Z,29.20
2023-08-12T16:24:18.581Z,29.18
2023-08-12T16:26:46.147Z,29.17
2023-08-12T16:29:13.670Z,29.14
2023-08-12T16:31:41.222Z,29.10
2023-08-12T16:34:08.760Z,29.05
2023-08-12T16:36:36.284Z,28.97
2023-08-12T16:39:04.616Z,28.93
2023-08-12T16:41:32.189Z,28.91
2023-08-12T16:43:59.731Z,28.86
2023-08-12T16:46:27.347Z,28.81
2023-08-12T16:48:54.872Z,28.78
2023-08-12T16:51:22.394Z,28.72
2023-08-12T16:53:50.019Z,28.67
2023-08-12T16:56:17.603Z,28.63
2023-08-12T16:58:45.185Z,28.57
2023-08-12T17:01:12.756Z,28.53
2023-08-12T17:03:40.358Z,28.47
2023-08-12T17:06:07.894Z,28.43
2023-08-12T17:08:35.490Z,28.40
2023-08-12T17:11:07.690Z,28.36
2023-08-12T17:13:35.290Z,28.33
2023-08-12T17:16:02.858Z,28.28
2023-08-12T17:18:30.604Z,28.24
2023-08-12T17:20:58.134Z,28.19
2023-08-12T17:23:25.652Z,28.14
2023-08-12T17:25:53.190Z,28.09
2023-08-12T17:28:20.819Z,28.05
2023-08-12T17:30:49.234Z,28.01
2023-08-12T17:33:16.993Z,27.99
2023-08-12T17:35:44.617Z,27.98
2023-08-12T17:38:12.361Z,27.96
2023-08-12T17:40:40.003Z,27.95
2023-08-12T17:43:07.582Z,27.94
2023-08-12T17:45:35.390Z,27.93
2023-08-12T17:48:05.735Z,27.93
2023-08-12T17:50:33.325Z,27.93
2023-08-12T17:53:01.162Z,27.92
2023-08-12T17:55:28.892Z,27.92
2023-08-12T17:57:56.818Z,27.92
2023-08-12T18:00:24.656Z,27.91
2023-08-12T18:02:52.259Z,27.91
2023-08-12T18:05:19.806Z,27.91
2023-08-12T18:07:47.354Z,27.89
2023-08-12T18:10:14.937Z,27.89
2023-08-12T18:12:42.451Z,27.87
2023-08-12T18:15:10.664Z,27.87
2023-08-12T18:17:38.259Z,27.86
2023-08-12T18:20:06.487Z,27.85
2023-08-12T18:22:34.069Z,27.83
2023-08-12T18:25:01.723Z,27.82
2023-08-12T18:27:29.270Z,27.80
2023-08-12T18:29:57.725Z,27.78
2023-08-12T18:32:28.346Z,27.76
2023-08-12T18:34:57.176Z,27.73
2023-08-12T18:37:24.709Z,27.72
2023-08-12T18:39:52.267Z,27.70
2023-08-12T18:42:20.021Z,27.67
2023-08-12T18:44:47.557Z,27.65
2023-08-12T18:47:16.655Z,27.63
2023-08-12T18:49:44.922Z,27.61
2023-08-12T18:52:13.027Z,27.58
2023-08-12T18:54:41.455Z,27.56
2023-08-12T18:57:09.006Z,27.53
2023-08-12T18:59:36.513Z,27.50
2023-08-12T19:02:04.478Z,27.48
2023-08-12T19:04:32.624Z,27.45
2023-08-12T19:07:00.235Z,27.43
2023-08-12T19:09:27.826Z,27.41
2023-08-12T19:11:55.360Z,27.39
2023-08-12T19:14:23.216Z,27.35
2023-08-12T19:16:50.973Z,27.33
2023-08-12T19:19:18.610Z,27.31
2023-08-12T19:21:46.243Z,27.30
2023-08-12T19:24:13.847Z,27.28
2023-08-12T19:26:41.377Z,27.26
2023-08-12T19:29:08.909Z,27.25
2023-08-12T19:31:36.479Z,27.24
2023-08-12T19:34:04.301Z,27.22
2023-08-12T19:36:31.829Z,27.20
2023-08-12T19:38:59.317Z,27.18
2023-08-12T19:41:30.109Z,27.15
2023-08-12T19:43:59.925Z,27.13
2023-08-12T19:46:27.499Z,27.11
2023-08-12T19:48:55.304Z,27.09
2023-08-12T19:51:23.233Z,27.07
2023-08-12T19:53:50.881Z,27.04
2023-08-12T19:56:18.457Z,27.02
2023-08-12T19:58:46.044Z,27.00
2023-08-12T20:01:13.608Z,26.99
2023-08-12T20:03:41.188Z,26.95
2023-08-12T20:06:11.750Z,26.92
2023-08-12T20:08:39.375Z,26.87
2023-08-12T20:11:07.102Z,26.85
2023-08-12T20:13:34.601Z,26.80
2023-08-12T20:16:02.172Z,26.77
2023-08-12T20:18:29.728Z,26.75
2023-08-12T20:20:58.752Z,26.73
2023-08-12T20:23:26.355Z,26.73
2023-08-12T20:25:53.950Z,26.71
2023-08-12T20:28:21.508Z,26.70
2023-08-12T20:30:49.238Z,26.69
2023-08-12T20:33:17.122Z,26.68
2023-08-12T20:35:44.675Z,26.66
2023-08-12T20:38:12.331Z,26.64
2023-08-12T20:40:39.857Z,26.63
2023-08-12T20:43:07.429Z,26.62
2023-08-12T20:45:34.938Z,26.62
2023-08-12T20:48:02.476Z,26.60
2023-08-12T20:50:30.038Z,26.59
2023-08-12T20:52:57.703Z,26.58
2023-08-12T20:55:25.278Z,26.56
2023-08-12T20:57:52.850Z,26.54
2023-08-12T21:00:20.389Z,26.53
2023-08-12T21:02:48.093Z,26.51
2023-08-12T21:05:15.725Z,26.50
2023-08-12T21:07:43.306Z,26.49
2023-08-12T21:10:11.348Z,26.46
2023-08-12T21:12:39.351Z,26.44
2023-08-12T21:15:07.344Z,26.42
2023-08-12T21:17:35.689Z,26.40
2023-08-12T21:20:03.529Z,26.38
2023-08-12T21:22:31.061Z,26.37
2023-08-12T21:24:58.585Z,26.35
2023-08-12T21:27:27.064Z,26.33
2023-08-12T21:29:54.599Z,26.32
2023-08-12T21:32:22.154Z,26.30
2023-08-12T21:34:49.684Z,26.29
2023-08-12T21:37:17.212Z,26.27
2023-08-12T21:39:44.706Z,26.26
2023-08-12T21:42:12.516Z,26.25
2023-08-12T21:44:40.249Z,26.23
2023-08-12T21:47:07.906Z,26.21
2023-08-12T21:49:35.435Z,26.21
2023-08-12T21:52:02.981Z,26.19
2023-08-12T21:54:30.512Z,26.16
2023-08-12T21:56:58.043Z,26.14
2023-08-12T21:59:25.570Z,26.13
2023-08-12T22:01:53.220Z,26.12
2023-08-12T22:04:20.899Z,26.10
2023-08-12T22:06:48.434Z,26.08
2023-08-12T22:09:15.937Z,26.08
2023-08-12T22:11:43.488Z,26.06
2023-08-12T22:14:11.639Z,26.05
2023-08-12T22:16:39.319Z,26.03
2023-08-12T22:19:06.845Z,26.01
2023-08-12T22:21:34.558Z,25.99
2023-08-12T22:24:02.101Z,25.97
2023-08-12T22:26:29.680Z,25.96
2023-08-12T22:28:57.213Z,25.93
2023-08-12T22:31:24.750Z,25.92
2023-08-12T22:33:52.328Z,25.89
2023-08-12T22:36:19.912Z,25.88
2023-08-12T22:38:48.074Z,25.87
2023-08-12T22:41:15.593Z,25.86
2023-08-12T22:43:43.170Z,25.86
2023-08-12T22:46:10.722Z,25.85
2023-08-12T22:48:38.371Z,25.82
2023-08-12T22:51:05.960Z,25.81
2023-08-12T22:53:33.537Z,25.80
2023-08-12T22:56:01.189Z,25.78
2023-08-12T22:58:28.721Z,25.76
2023-08-12T23:00:56.273Z,25.75
2023-08-12T23:03:23.970Z,25.73
2023-08-12T23:05:51.555Z,25.73
2023-08-12T23:08:19.250Z,25.73
2023-08-12T23:10:46.985Z,25.70
2023-08-12T23:13:14.634Z,25.69
2023-08-12T23:15:43.726Z,25.65
2023-08-12T23:18:11.221Z,25.63
2023-08-12T23:20:38.737Z,25.61
2023-08-12T23:23:06.301Z,25.54
2023-08-12T23:25:33.931Z,25.47
2023-08-12T23:28:01.557Z,25.43
2023-08-12T23:30:29.181Z,25.41
2023-08-12T23:32:56.749Z,25.35
2023-08-12T23:35:24.281Z,25.26
2023-08-12T23:37:51.908Z,25.19
2023-08-12T23:40:19.536Z,25.14
2023-08-12T23:42:47.072Z,25.09
2023-08-12T23:45:14.594Z,25.03
2023-08-12T23:47:42.165Z,24.99
2023-08-12T23:50:12.491Z,24.96
2023-08-12T23:52:40.112Z,24.93
2023-08-12T23:55:07.904Z,24.88
2023-08-12T23:57:36.091Z,24.81
